Time,TemperatureF,DewpointF,PressureIn,WindDirection,WindDirectionDegrees,WindSpeedMPH,WindSpeedGustMPH,Humidity,HourlyPrecipIn,Conditions,Clouds,dailyrainin,SoftwareType,DateUTC
2013-02-14 00:00:00,23.3,21.1,29.76,NNW,327,0.0,0.0,91,0.00,,,0.00,Wunderground v.1.15,2013-02-14 05:00:00,
2013-02-14 00:09:00,23.1,20.9,29.76,NNW,327,0.0,0.0,91,0.00,,,0.00,Wunderground v.1.15,2013-02-14 05:09:00,
2013-02-14 00:19:00,23.0,20.8,29.75,NNW,328,0.0,0.0,91,0.00,,,0.00,Wunderground v.1.15,2013-02-14 05:19:00,
2013-02-14 00:39:00,22.6,20.4,29.76,NNW,328,0.0,0.0,91,0.00,,,0.00,Wunderground v.1.15,2013-02-14 05:39:00,
2013-02-14 00:49:00,22.4,20.4,29.76,NNW,328,0.0,0.0,92,0.00,,,0.00,Wunderground v.1.15,2013-02-14 05:49:00,
2013-02-14 01:00:00,22.1,20.1,29.76,NNW,327,0.0,0.0,92,0.00,,,0.00,Wunderground v.1.15,2013-02-14 06:00:00,
2013-02-14 01:09:00,22.0,20.0,29.76,NNW,327,0.0,0.0,92,0.00,,,0.00,Wunderground v.1.15,2013-02-14 06:09:00,
2013-02-14 01:19:00,21.8,19.8,29.77,NNW,328,0.0,0.0,92,0.00,,,0.00,Wunderground v.1.15,2013-02-14 06:19:00,
2013-02-14 01:30:00,21.8,19.8,29.77,NNW,328,0.0,0.0,92,0.00,,,0.00,Wunderground v.1.15,2013-02-14 06:30:00,
2013-02-14 01:39:00,21.8,19.8,29.77,NNW,327,0.0,1.0,92,0.00,,,0.00,Wunderground v.1.15,2013-02-14 06:39:00,
2013-02-14 01:49:00,22.2,19.7,29.77,NNW,327,1.0,1.0,90,0.00,,,0.00,Wunderground v.1.15,2013-02-14 06:49:00,
2013-02-14 02:00:00,22.2,19.5,29.77,NW,326,0.0,0.0,89,0.00,,,0.00,Wunderground v.1.15,2013-02-14 07:00:00,
2013-02-14 02:09:00,22.1,19.1,29.76,NNW,327,0.0,0.0,88,0.00,,,0.00,Wunderground v.1.15,2013-02-14 07:09:00,
2013-02-14 02:19:00,21.8,18.8,29.76,NNW,327,0.0,0.0,88,0.00,,,0.00,Wunderground v.1.15,2013-02-14 07:19:00,
2013-02-14 02:30:00,21.3,18.8,29.76,NNW,327,0.0,0.0,90,0.00,,,0.00,Wunderground v.1.15,2013-02-14 07:30:00,
2013-02-14 02:39:00,21.2,19.0,29.76,NW,326,1.0,1.0,91,0.00,,,0.00,Wunderground v.1.15,2013-02-14 07:39:00,
2013-02-14 02:49:00,21.2,19.0,29.76,NNW,327,0.0,2.0,91,0.00,,,0.00,Wunderground v.1.15,2013-02-14 07:49:00,
2013-02-14 03:09:00,21.6,19.1,29.75,NW,314,4.0,4.0,90,0.00,,,0.00,Wunderground v.1.15,2013-02-14 08:09:00,
2013-02-14 03:19:00,21.6,18.9,29.75,NW,315,4.0,4.0,89,0.00,,,0.00,Wunderground v.1.15,2013-02-14 08:19:00,
2013-02-14 03:39:00,20.5,17.8,29.75,NW,315,1.0,1.0,89,0.00,,,0.00,Wunderground v.1.15,2013-02-14 08:39:00,
2013-02-14 03:49:00,19.7,17.2,29.75,NW,315,0.0,0.0,90,0.00,,,0.00,Wunderground v.1.15,2013-02-14 08:49:00,
2013-02-14 04:00:00,18.9,16.5,29.75,NW,315,0.0,1.0,90,0.00,,,0.00,Wunderground v.1.15,2013-02-14 09:00:00,
2013-02-14 04:09:00,18.1,15.9,29.76,NW,315,0.0,0.0,91,0.00,,,0.00,Wunderground v.1.15,2013-02-14 09:09:00,
2013-02-14 04:19:00,17.7,15.5,29.78,NW,315,0.0,0.0,91,0.00,,,0.00,Wunderground v.1.15,2013-02-14 09:19:00,
2013-02-14 04:30:00,17.5,15.3,29.78,NW,315,0.0,0.0,91,0.00,,,0.00,Wunderground v.1.15,2013-02-14 09:30:00,
2013-02-14 04:39:00,16.8,14.6,29.78,NW,315,0.0,0.0,91,0.00,,,0.00,Wunderground v.1.15,2013-02-14 09:39:00,
2013-02-14 04:49:00,16.4,14.5,29.79,NW,315,0.0,0.0,92,0.00,,,0.00,Wunderground v.1.15,2013-02-14 09:49:00,
2013-02-14 05:00:00,16.4,14.5,29.79,NW,315,0.0,2.0,92,0.00,,,0.00,Wunderground v.1.15,2013-02-14 10:00:00,
2013-02-14 05:09:00,15.9,13.7,29.79,SW,227,4.0,4.0,91,0.00,,,0.00,Wunderground v.1.15,2013-02-14 10:09:00,
2013-02-14 05:19:00,15.5,13.1,29.79,SW,226,4.0,4.0,90,0.00,,,0.00,Wunderground v.1.15,2013-02-14 10:19:00,
2013-02-14 05:30:00,15.3,13.1,29.80,SW,227,3.0,4.0,91,0.00,,,0.00,Wunderground v.1.15,2013-02-14 10:30:00,
2013-02-14 05:39:00,15.4,13.0,29.80,SW,227,1.0,4.0,90,0.00,,,0.00,Wunderground v.1.15,2013-02-14 10:39:00,
2013-02-14 05:49:00,14.8,12.4,29.81,SW,227,0.0,0.0,90,0.00,,,0.00,Wunderground v.1.15,2013-02-14 10:49:00,
2013-02-14 06:00:00,15.0,13.1,29.81,SW,227,0.0,0.0,92,0.00,,,0.00,Wunderground v.1.15,2013-02-14 11:00:00,
2013-02-14 06:09:00,15.1,13.2,29.82,SW,227,0.0,0.0,92,0.00,,,0.00,Wunderground v.1.15,2013-02-14 11:09:00,
2013-02-14 06:19:00,14.7,12.6,29.82,SW,227,0.0,0.0,91,0.00,,,0.00,Wunderground v.1.15,2013-02-14 11:19:00,
2013-02-14 06:30:00,14.5,12.6,29.82,SW,227,0.0,0.0,92,0.00,,,0.00,Wunderground v.1.15,2013-02-14 11:30:00,
2013-02-14 06:39:00,14.7,12.8,29.82,SW,227,0.0,0.0,92,0.00,,,0.00,Wunderground v.1.15,2013-02-14 11:39:00,
2013-02-14 06:49:00,14.8,12.9,29.83,SW,227,0.0,0.0,92,0.00,,,0.00,Wunderground v.1.15,2013-02-14 11:49:00,
2013-02-14 07:09:00,15.0,13.1,29.83,SW,227,0.0,0.0,92,0.00,,,0.00,Wunderground v.1.15,2013-02-14 12:09:00,
2013-02-14 07:19:00,14.6,12.5,29.83,SW,226,0.0,0.0,91,0.00,,,0.00,Wunderground v.1.15,2013-02-14 12:19:00,
2013-02-14 07:30:00,14.3,12.2,29.83,SW,226,0.0,1.0,91,0.00,,,0.00,Wunderground v.1.15,2013-02-14 12:30:00,
2013-02-14 07:39:00,14.5,12.4,29.83,SW,227,0.0,0.0,91,0.00,,,0.00,Wunderground v.1.15,2013-02-14 12:39:00,
2013-02-14 07:49:00,14.6,12.5,29.83,NNW,328,1.0,3.0,91,0.00,,,0.00,Wunderground v.1.15,2013-02-14 12:49:00,
2013-02-14 08:00:00,14.5,12.4,29.83,NNW,328,2.0,2.0,91,0.00,,,0.00,Wunderground v.1.15,2013-02-14 13:00:00,
2013-02-14 08:09:00,14.6,12.5,29.83,North,349,2.0,2.0,91,0.00,,,0.00,Wunderground v.1.15,2013-02-14 13:09:00,
2013-02-14 08:19:00,14.4,12.3,29.83,North,349,0.0,0.0,91,0.00,,,0.00,Wunderground v.1.15,2013-02-14 13:19:00,
2013-02-14 08:39:00,14.9,12.7,29.83,North,349,0.0,0.0,91,0.00,,,0.00,Wunderground v.1.15,2013-02-14 13:39:00,
2013-02-14 08:49:00,18.9,17.5,29.83,NW,304,3.0,5.0,94,0.00,,,0.00,Wunderground v.1.15,2013-02-14 13:49:00,
2013-02-14 09:09:00,21.5,18.2,29.83,WNW,292,6.0,6.0,87,0.00,,,0.00,Wunderground v.1.15,2013-02-14 14:09:00,
2013-02-14 09:19:00,22.4,18.8,29.83,NW,321,6.0,7.0,86,0.00,,,0.00,Wunderground v.1.15,2013-02-14 14:19:00,
2013-02-14 10:50:00,26.6,20.4,29.84,NW,309,2.0,4.0,77,0.00,,,0.00,Wunderground v.1.15,2013-02-14 15:50:00,
2013-02-14 11:00:00,26.9,20.7,29.83,NW,321,4.0,4.0,77,0.00,,,0.00,Wunderground v.1.15,2013-02-14 16:00:00,
2013-02-14 11:10:00,27.3,20.4,29.83,NW,320,3.0,4.0,75,0.00,,,0.00,Wunderground v.1.15,2013-02-14 16:10:00,
2013-02-14 11:20:00,27.7,20.8,29.83,NNW,344,3.0,3.0,75,0.00,,,0.00,Wunderground v.1.15,2013-02-14 16:20:00,
2013-02-14 11:40:00,29.0,21.1,29.83,NNW,343,0.0,0.0,72,0.00,,,0.00,Wunderground v.1.15,2013-02-14 16:40:00,
2013-02-14 11:50:00,29.0,20.8,29.83,NNW,344,1.0,5.0,71,0.00,,,0.00,Wunderground v.1.15,2013-02-14 16:50:00,
2013-02-14 12:01:00,28.8,20.9,29.83,NNW,338,3.0,3.0,72,0.00,,,0.00,Wunderground v.1.15,2013-02-14 17:01:00,
2013-02-14 12:10:00,28.6,20.4,29.83,NW,314,1.0,3.0,71,0.00,,,0.00,Wunderground v.1.15,2013-02-14 17:10:00,
2013-02-14 12:20:00,28.8,20.6,29.83,NNE,12,1.0,2.0,71,0.00,,,0.00,Wunderground v.1.15,2013-02-14 17:20:00,
2013-02-14 12:30:00,29.9,20.6,29.83,NNE,24,1.0,1.0,68,0.00,,,0.01,Wunderground v.1.15,2013-02-14 17:30:00,
2013-02-14 12:40:00,30.9,21.2,29.83,NNE,13,3.0,5.0,67,0.00,,,0.01,Wunderground v.1.15,2013-02-14 17:40:00,
2013-02-14 12:50:00,30.4,21.4,29.84,NNE,17,5.0,5.0,69,0.00,,,0.01,Wunderground v.1.15,2013-02-14 17:50:00,
2013-02-14 13:00:00,30.5,21.2,29.84,NNE,17,2.0,2.0,68,0.00,,,0.01,Wunderground v.1.15,2013-02-14 18:00:00,
2013-02-14 13:10:00,30.5,20.8,29.84,NNE,25,2.0,5.0,67,0.00,,,0.01,Wunderground v.1.15,2013-02-14 18:10:00,
2013-02-14 13:20:00,30.2,20.6,29.84,WNW,300,4.0,5.0,67,0.00,,,0.01,Wunderground v.1.15,2013-02-14 18:20:00,
2013-02-14 13:30:00,30.7,21.0,29.84,NNE,24,5.0,5.0,67,0.00,,,0.01,Wunderground v.1.15,2013-02-14 18:30:00,
2013-02-14 13:40:00,30.8,21.1,29.85,North,5,3.0,3.0,67,0.00,,,0.01,Wunderground v.1.15,2013-02-14 18:40:00,
2013-02-14 13:50:00,30.7,21.0,29.85,North,360,3.0,3.0,67,0.00,,,0.01,Wunderground v.1.15,2013-02-14 18:50:00,
2013-02-14 14:00:00,30.5,21.2,29.85,North,360,1.0,1.0,68,0.00,,,0.01,Wunderground v.1.15,2013-02-14 19:00:00,
2013-02-14 14:10:00,30.5,21.2,29.85,North,360,1.0,5.0,68,0.00,,,0.01,Wunderground v.1.15,2013-02-14 19:10:00,
2013-02-14 14:20:00,30.5,21.5,29.86,North,360,2.0,4.0,69,0.00,,,0.01,Wunderground v.1.15,2013-02-14 19:20:00,
2013-02-14 14:40:00,30.7,22.4,29.86,NNE,15,4.0,4.0,71,0.00,,,0.02,Wunderground v.1.15,2013-02-14 19:40:00,
2013-02-14 14:50:00,30.6,22.0,29.87,NNE,16,3.0,3.0,70,0.00,,,0.02,Wunderground v.1.15,2013-02-14 19:50:00,
2013-02-14 15:01:00,30.9,22.3,29.87,NNE,16,0.0,0.0,70,0.00,,,0.02,Wunderground v.1.15,2013-02-14 20:01:00,
2013-02-14 15:10:00,30.9,21.9,29.87,NNE,16,2.0,2.0,69,0.00,,,0.02,Wunderground v.1.15,2013-02-14 20:10:00,
2013-02-14 15:20:00,30.7,22.1,29.87,NNE,15,0.0,0.0,70,0.00,,,0.02,Wunderground v.1.15,2013-02-14 20:20:00,
2013-02-14 15:30:00,30.4,21.4,29.87,NNE,14,0.0,0.0,69,0.00,,,0.02,Wunderground v.1.15,2013-02-14 20:30:00,
2013-02-14 15:40:00,29.6,20.7,29.87,NNE,14,0.0,0.0,69,0.00,,,0.02,Wunderground v.1.15,2013-02-14 20:40:00,
2013-02-14 15:50:00,29.1,20.2,29.88,NNE,12,0.0,0.0,69,0.00,,,0.02,Wunderground v.1.15,2013-02-14 20:50:00,
2013-02-14 16:00:00,29.4,20.5,29.88,North,11,0.0,0.0,69,0.00,,,0.02,Wunderground v.1.15,2013-02-14 21:00:00,
2013-02-14 16:10:00,30.0,20.7,29.88,North,11,0.0,0.0,68,0.00,,,0.02,Wunderground v.1.15,2013-02-14 21:10:00,
2013-02-14 16:20:00,29.6,20.3,29.88,NNE,12,0.0,0.0,68,0.00,,,0.02,Wunderground v.1.15,2013-02-14 21:20:00,
2013-02-14 16:30:00,28.5,20.0,29.89,NNE,12,0.0,0.0,70,0.00,,,0.02,Wunderground v.1.15,2013-02-14 21:30:00,
2013-02-14 16:40:00,27.5,19.3,29.89,NNE,12,0.0,0.0,71,0.00,,,0.02,Wunderground v.1.15,2013-02-14 21:40:00,
2013-02-14 16:50:00,26.8,19.0,29.89,NNE,12,0.0,0.0,72,0.00,,,0.02,Wunderground v.1.15,2013-02-14 21:50:00,
2013-02-14 17:00:00,26.3,18.8,29.89,North,11,0.0,0.0,73,0.00,,,0.02,Wunderground v.1.15,2013-02-14 22:00:00,
2013-02-14 17:10:00,25.9,18.7,29.90,NNE,12,0.0,0.0,74,0.00,,,0.02,Wunderground v.1.15,2013-02-14 22:10:00,
2013-02-14 17:20:00,25.6,18.8,29.90,NNE,12,0.0,0.0,75,0.00,,,0.02,Wunderground v.1.15,2013-02-14 22:20:00,
2013-02-14 17:30:00,24.5,18.0,29.90,NNE,12,0.0,0.0,76,0.00,,,0.02,Wunderground v.1.15,2013-02-14 22:30:00,
2013-02-14 17:40:00,23.7,18.1,29.91,NNE,12,0.0,0.0,79,0.00,,,0.02,Wunderground v.1.15,2013-02-14 22:40:00,
2013-02-14 17:50:00,23.6,18.6,29.91,North,11,0.0,0.0,81,0.00,,,0.02,Wunderground v.1.15,2013-02-14 22:50:00,
2013-02-14 18:00:00,24.0,18.7,29.91,NNE,12,0.0,0.0,80,0.00,,,0.02,Wunderground v.1.15,2013-02-14 23:00:00,
2013-02-14 18:10:00,24.2,18.6,29.91,NNE,12,0.0,0.0,79,0.00,,,0.02,Wunderground v.1.15,2013-02-14 23:10:00,
2013-02-14 18:20:00,24.5,18.6,29.91,NNE,12,0.0,0.0,78,0.00,,,0.02,Wunderground v.1.15,2013-02-14 23:20:00,
2013-02-14 18:40:00,23.9,18.6,29.91,NNE,12,0.0,0.0,80,0.00,,,0.02,Wunderground v.1.15,2013-02-14 23:40:00,
2013-02-14 18:50:00,23.6,18.3,29.92,NNE,12,0.0,0.0,80,0.00,,,0.02,Wunderground v.1.15,2013-02-14 23:50:00,
2013-02-14 19:00:00,23.3,18.0,29.92,NNE,12,0.0,0.0,80,0.00,,,0.02,Wunderground v.1.15,2013-02-15 00:00:00,
2013-02-14 19:10:00,22.3,16.2,29.92,NNE,12,0.0,0.0,77,0.00,,,0.02,Wunderground v.1.15,2013-02-15 00:10:00,
2013-02-14 19:20:00,21.0,16.4,29.92,North,11,0.0,0.0,82,0.00,,,0.02,Wunderground v.1.15,2013-02-15 00:20:00,
2013-02-14 19:30:00,21.6,17.5,29.92,NNE,12,0.0,0.0,84,0.00,,,0.02,Wunderground v.1.15,2013-02-15 00:30:00,
2013-02-14 19:40:00,22.1,18.0,29.93,NNE,12,0.0,0.0,84,0.00,,,0.02,Wunderground v.1.15,2013-02-15 00:40:00,
2013-02-14 19:50:00,22.5,18.1,29.93,NNE,12,0.0,0.0,83,0.00,,,0.02,Wunderground v.1.15,2013-02-15 00:50:00,
2013-02-14 20:00:00,21.8,16.6,29.93,NNE,12,0.0,0.0,80,0.00,,,0.02,Wunderground v.1.15,2013-02-15 01:00:00,
2013-02-14 20:10:00,20.6,16.0,29.93,NNE,12,0.0,0.0,82,0.00,,,0.02,Wunderground v.1.15,2013-02-15 01:10:00,
2013-02-14 20:20:00,19.7,15.4,29.93,NNE,12,0.0,0.0,83,0.00,,,0.02,Wunderground v.1.15,2013-02-15 01:20:00,
2013-02-14 20:30:00,19.7,16.2,29.94,North,11,0.0,0.0,86,0.00,,,0.02,Wunderground v.1.15,2013-02-15 01:30:00,
2013-02-14 20:40:00,19.3,15.3,29.94,NNE,12,0.0,0.0,84,0.00,,,0.02,Wunderground v.1.15,2013-02-15 01:40:00,
2013-02-14 20:50:00,18.8,15.0,29.95,NNE,12,0.0,0.0,85,0.00,,,0.02,Wunderground v.1.15,2013-02-15 01:50:00,
2013-02-14 21:00:00,18.6,15.4,29.95,North,11,0.0,0.0,87,0.00,,,0.02,Wunderground v.1.15,2013-02-15 02:00:00,
2013-02-14 21:10:00,19.1,15.6,29.95,North,11,0.0,0.0,86,0.00,,,0.02,Wunderground v.1.15,2013-02-15 02:10:00,
2013-02-14 21:20:00,19.1,15.9,29.95,NNE,12,0.0,0.0,87,0.00,,,0.02,Wunderground v.1.15,2013-02-15 02:20:00,
2013-02-14 21:40:00,19.7,16.2,29.95,NNE,12,0.0,0.0,86,0.00,,,0.02,Wunderground v.1.15,2013-02-15 02:40:00,
2013-02-14 21:50:00,19.3,15.8,29.95,NNE,12,0.0,0.0,86,0.00,,,0.02,Wunderground v.1.15,2013-02-15 02:50:00,
2013-02-14 22:10:00,18.3,15.1,29.96,NNE,12,0.0,0.0,87,0.00,,,0.02,Wunderground v.1.15,2013-02-15 03:10:00,
2013-02-14 22:20:00,18.4,15.4,29.96,NNE,12,0.0,0.0,88,0.00,,,0.02,Wunderground v.1.15,2013-02-15 03:20:00,
2013-02-14 22:30:00,18.0,14.8,29.96,NNE,12,0.0,0.0,87,0.00,,,0.02,Wunderground v.1.15,2013-02-15 03:30:00,
2013-02-14 22:40:00,17.2,14.0,29.96,NNE,12,0.0,0.0,87,0.00,,,0.02,Wunderground v.1.15,2013-02-15 03:40:00,
2013-02-14 22:50:00,16.6,13.7,29.96,NNE,12,0.0,0.0,88,0.00,,,0.02,Wunderground v.1.15,2013-02-15 03:50:00,
2013-02-14 23:00:00,16.3,13.6,29.96,NNE,12,0.0,0.0,89,0.00,,,0.02,Wunderground v.1.15,2013-02-15 04:00:00,
2013-02-14 23:10:00,16.4,14.0,29.96,NNE,12,0.0,0.0,90,0.00,,,0.02,Wunderground v.1.15,2013-02-15 04:10:00,
2013-02-14 23:20:00,16.8,14.6,29.96,NNE,12,0.0,0.0,91,0.00,,,0.02,Wunderground v.1.15,2013-02-15 04:20:00,
2013-02-14 23:30:00,16.4,14.0,29.96,North,11,0.0,0.0,90,0.00,,,0.02,Wunderground v.1.15,2013-02-15 04:30:00,
2013-02-14 23:40:00,16.9,15.0,29.96,NNE,12,0.0,0.0,92,0.00,,,0.02,Wunderground v.1.15,2013-02-15 04:40:00,
2013-02-14 23:50:00,16.9,14.7,29.97,NNE,12,0.0,0.0,91,0.00,,,0.02,Wunderground v.1.15,2013-02-15 04:50:00,